createdAt,value
2022-08-07T00:09:21.334Z,99.90
2022-08-07T00:11:55.895Z,99.90
2022-08-07T00:14:30.004Z,99.90
2022-08-07T00:16:57.877Z,99.90
2022-08-07T00:24:55.171Z,99.90
2022-08-07T00:27:22.538Z,99.90
2022-08-07T00:37:25.843Z,99.90
2022-08-07T00:39:58.339Z,99.90
2022-08-07T00:50:19.153Z,99.90
2022-08-07T00:55:46.583Z,99.90
2022-08-07T00:58:12.820Z,99.90
2022-08-07T01:06:08.911Z,99.90
2022-08-07T01:08:35.562Z,99.90
2022-08-07T01:12:23.646Z,99.90
2022-08-07T01:21:27.554Z,99.90
2022-08-07T01:23:57.552Z,99.90
2022-08-07T01:26:26.216Z,99.90
2022-08-07T01:28:53.802Z,99.90
2022-08-07T01:31:27.225Z,99.90
2022-08-07T01:34:00.151Z,99.90
2022-08-07T01:36:33.213Z,99.90
2022-08-07T01:41:32.616Z,99.90
2022-08-07T01:43:59.475Z,99.90
2022-08-07T01:46:28.376Z,99.90
2022-08-07T01:52:03.709Z,99.90
2022-08-07T01:54:32.459Z,99.90
2022-08-07T01:57:05.259Z,99.90
2022-08-07T01:59:43.855Z,99.90
2022-08-07T02:04:57.337Z,99.90
2022-08-07T02:07:44.762Z,99.90
2022-08-07T02:10:18.545Z,99.90
2022-08-07T02:12:50.203Z,99.90
2022-08-07T02:15:21.933Z,99.90
2022-08-07T02:17:51.835Z,99.90
2022-08-07T02:20:23.770Z,99.90
2022-08-07T02:22:54.842Z,99.90
2022-08-07T02:26:10.110Z,99.90
2022-08-07T02:28:12.555Z,99.90
2022-08-07T02:30:40.281Z,99.90
2022-08-07T02:33:10.498Z,99.90
2022-08-07T02:36:28.480Z,99.90
2022-08-07T02:38:31.911Z,99.90
2022-08-07T02:41:00.590Z,99.90
2022-08-07T02:43:28.086Z,99.90
2022-08-07T02:45:59.447Z,99.90
2022-08-07T02:48:29.302Z,99.90
2022-08-07T02:50:57.351Z,99.90
2022-08-07T02:53:31.759Z,99.90
2022-08-07T02:56:17.582Z,99.90
2022-08-07T02:58:51.176Z,99.90
2022-08-07T03:01:36.123Z,99.90
2022-08-07T03:04:07.230Z,99.90
2022-08-07T03:06:35.092Z,99.90
2022-08-07T03:11:32.681Z,99.90
2022-08-07T03:14:01.774Z,99.90
2022-08-07T03:16:30.467Z,99.90
2022-08-07T03:21:25.486Z,99.90
2022-08-07T03:24:20.195Z,99.90
2022-08-07T03:26:58.374Z,99.90
2022-08-07T03:29:29.222Z,99.90
2022-08-07T03:34:27.351Z,99.90
2022-08-07T03:36:55.030Z,99.90
2022-08-07T03:39:46.344Z,99.90
2022-08-07T03:42:13.789Z,99.90
2022-08-07T03:44:40.914Z,99.90
2022-08-07T03:47:14.242Z,99.90
2022-08-07T03:49:42.490Z,99.90
2022-08-07T03:52:22.830Z,99.90
2022-08-07T03:58:34.531Z,99.90
2022-08-07T04:03:03.794Z,99.90
2022-08-07T04:08:11.139Z,99.90
2022-08-07T04:10:38.734Z,99.90
2022-08-07T04:13:07.286Z,99.90
2022-08-07T04:15:43.185Z,99.90
2022-08-07T04:18:56.303Z,99.90
2022-08-07T04:28:49.372Z,99.90
2022-08-07T04:33:56.439Z,99.90
2022-08-07T04:36:26.217Z,99.90
2022-08-07T04:38:53.356Z,99.90
2022-08-07T04:44:12.819Z,99.90
2022-08-07T04:46:59.481Z,99.90
2022-08-07T04:49:41.211Z,99.90
2022-08-07T04:52:14.363Z,99.90
2022-08-07T04:54:52.174Z,99.90
2022-08-07T04:58:23.957Z,99.90
2022-08-07T05:00:30.452Z,99.60
2022-08-07T05:03:31.075Z,98.20
2022-08-07T05:05:59.391Z,95.30
2022-08-07T05:08:59.023Z,93.90
2022-08-07T05:11:57.737Z,96.70
2022-08-07T05:14:55.525Z,90.40
2022-08-07T05:17:12.059Z,91.80
2022-08-07T05:19:45.104Z,91.80
2022-08-07T05:22:26.711Z,84.10
2022-08-07T05:24:56.527Z,83.60
2022-08-07T05:28:02.615Z,90.40
2022-08-07T05:30:12.733Z,79.30
2022-08-07T05:32:41.805Z,89.10
2022-08-07T05:35:11.618Z,80.00
2022-08-07T05:37:40.945Z,74.90
2022-08-07T05:40:18.796Z,79.20
2022-08-07T05:42:55.694Z,72.50
2022-08-07T05:45:25.903Z,68.60
2022-08-07T05:48:12.451Z,71.80
2022-08-07T05:50:42.983Z,72.50
2022-08-07T05:54:09.541Z,64.50
2022-08-07T05:58:36.714Z,66.60
2022-08-07T06:01:06.124Z,63.80
2022-08-07T06:03:53.372Z,62.60
2022-08-07T06:06:29.703Z,62.70
2022-08-07T06:09:01.533Z,69.40
2022-08-07T06:11:33.232Z,60.80
2022-08-07T06:16:50.504Z,74.50
2022-08-07T06:19:57.573Z,68.30
2022-08-07T06:28:00.335Z,72.30
2022-08-07T06:30:32.099Z,73.70
2022-08-07T06:33:00.248Z,75.10
2022-08-07T06:35:30.529Z,74.90
2022-08-07T06:38:08.160Z,81.70
2022-08-07T06:40:45.884Z,75.70
2022-08-07T06:43:20.926Z,76.20
2022-08-07T06:50:54.409Z,75.30
2022-08-07T06:55:28.082Z,72.20
2022-08-07T06:56:14.740Z,75.40
2022-08-07T07:00:13.436Z,74.20
2022-08-07T07:01:33.297Z,77.40
2022-08-07T07:04:32.695Z,77.50
2022-08-07T07:07:01.303Z,74.30
2022-08-07T07:09:30.931Z,82.90
2022-08-07T07:12:08.579Z,73.30
2022-08-07T07:14:47.171Z,73.40
2022-08-07T07:17:18.717Z,72.50
2022-08-07T07:19:57.952Z,71.70
2022-08-07T07:22:35.661Z,72.60
2022-08-07T07:26:31.136Z,72.70
2022-08-07T07:28:02.323Z,71.00
2022-08-07T07:30:39.744Z,67.70
2022-08-07T07:33:11.749Z,67.40
2022-08-07T07:35:50.691Z,64.70
2022-08-07T07:38:30.597Z,62.60
2022-08-07T07:41:02.768Z,70.40
2022-08-07T07:43:47.882Z,65.00
2022-08-07T07:46:37.246Z,63.20
2022-08-07T07:50:33.101Z,68.30
2022-08-07T07:51:59.568Z,63.90
2022-08-07T07:54:29.789Z,55.60
2022-08-07T07:56:57.672Z,56.20
2022-08-07T07:59:52.603Z,59.20
2022-08-07T08:02:34.162Z,58.00
2022-08-07T08:05:04.207Z,54.60
2022-08-07T08:07:35.657Z,51.90
2022-08-07T08:10:35.583Z,51.20
2022-08-07T08:15:57.641Z,51.00
2022-08-07T08:25:42.765Z,48.30
2022-08-07T08:28:23.967Z,48.30
2022-08-07T08:31:14.810Z,51.10
2022-08-07T08:33:43.811Z,49.00
2022-08-07T08:36:25.731Z,46.60
2022-08-07T08:38:59.199Z,45.50
2022-08-07T08:41:57.485Z,45.70
2022-08-07T08:44:29.602Z,46.50
2022-08-07T08:47:09.769Z,49.30
2022-08-07T08:49:46.690Z,47.40
2022-08-07T08:52:40.570Z,48.70
2022-08-07T08:55:21.006Z,48.70
2022-08-07T08:58:13.280Z,46.00
2022-08-07T09:00:56.461Z,46.20
2022-08-07T09:03:47.980Z,43.90
2022-08-07T09:06:26.389Z,43.80
2022-08-07T09:09:02.926Z,43.50
2022-08-07T09:11:53.157Z,43.70
2022-08-07T09:14:32.689Z,42.60
2022-08-07T09:17:07.865Z,40.80
2022-08-07T09:19:55.201Z,42.60
2022-08-07T09:24:32.872Z,41.80
2022-08-07T09:25:39.024Z,42.70
2022-08-07T09:30:01.829Z,40.70
2022-08-07T09:31:03.032Z,39.60
2022-08-07T09:33:56.871Z,38.80
2022-08-07T09:36:35.323Z,39.60
2022-08-07T09:39:27.452Z,39.10
2022-08-07T09:42:09.381Z,40.90
2022-08-07T09:47:25.582Z,41.00
2022-08-07T09:48:00.179Z,38.90
2022-08-07T09:50:44.649Z,38.70
2022-08-07T09:53:15.439Z,37.10
2022-08-07T09:56:03.246Z,36.10
2022-08-07T09:59:07.793Z,39.00
2022-08-07T10:01:59.698Z,38.90
2022-08-07T10:04:52.807Z,39.20
2022-08-07T10:07:52.774Z,43.80
2022-08-07T10:10:29.970Z,39.40
2022-08-07T10:13:54.697Z,40.10
2022-08-07T10:16:21.452Z,40.20
2022-08-07T10:19:22.068Z,40.90
2022-08-07T10:22:16.032Z,38.70
2022-08-07T10:24:56.010Z,39.50
2022-08-07T10:27:45.993Z,39.80
2022-08-07T10:30:17.565Z,37.70
2022-08-07T10:33:16.880Z,40.30
2022-08-07T10:36:05.184Z,38.30
2022-08-07T10:38:49.965Z,41.80
2022-08-07T10:41:51.329Z,45.00
2022-08-07T10:44:19.316Z,47.40
2022-08-07T10:47:01.604Z,46.80
2022-08-07T10:49:49.269Z,48.30
2022-08-07T10:52:33.789Z,48.40
2022-08-07T10:55:26.701Z,47.70
2022-08-07T10:58:09.317Z,46.10
2022-08-07T11:00:50.396Z,43.90
2022-08-07T11:03:37.275Z,41.90
2022-08-07T11:06:22.034Z,39.40
2022-08-07T11:08:56.131Z,36.90
2022-08-07T11:11:28.949Z,38.30
2022-08-07T11:14:45.196Z,37.90
2022-08-07T11:16:54.743Z,37.30
2022-08-07T11:19:33.268Z,39.90
2022-08-07T11:22:18.909Z,37.20
2022-08-07T11:25:06.517Z,37.70
2022-08-07T11:28:02.342Z,36.70
2022-08-07T11:30:41.880Z,37.10
2022-08-07T11:33:17.132Z,39.80
2022-08-07T11:35:58.941Z,37.00
2022-08-07T11:38:33.143Z,38.90
2022-08-07T11:41:05.648Z,39.30
2022-08-07T11:43:54.981Z,40.60
2022-08-07T11:46:49.537Z,39.60
2022-08-07T11:50:31.653Z,37.70
2022-08-07T11:52:55.485Z,35.20
2022-08-07T11:56:09.594Z,36.90
2022-08-07T11:58:33.358Z,37.10
2022-08-07T12:01:22.204Z,35.80
2022-08-07T12:04:07.826Z,35.40
2022-08-07T12:06:51.639Z,36.00
2022-08-07T12:09:34.733Z,36.60
2022-08-07T12:12:09.502Z,35.50
2022-08-07T12:14:46.159Z,34.90
2022-08-07T12:17:33.859Z,35.70
2022-08-07T12:20:19.971Z,36.80
2022-08-07T12:23:14.532Z,36.60
2022-08-07T12:26:03.159Z,37.40
2022-08-07T12:28:49.593Z,41.20
2022-08-07T12:31:27.072Z,43.00
2022-08-07T12:34:15.940Z,40.90
2022-08-07T12:36:50.062Z,42.70
2022-08-07T12:39:42.087Z,44.00
2022-08-07T12:42:09.882Z,44.50
2022-08-07T12:44:43.028Z,46.30
2022-08-07T12:47:26.991Z,45.70
2022-08-07T12:50:05.140Z,45.30
2022-08-07T12:53:05.238Z,46.20
2022-08-07T12:56:02.873Z,45.90
2022-08-07T12:58:36.738Z,45.70
2022-08-07T13:01:16.521Z,45.30
2022-08-07T13:04:01.905Z,43.50
2022-08-07T13:07:00.696Z,45.20
2022-08-07T13:10:28.777Z,43.90
2022-08-07T13:12:37.621Z,42.80
2022-08-07T13:15:15.111Z,51.60
2022-08-07T13:17:59.515Z,44.00
2022-08-07T13:20:34.588Z,52.70
2022-08-07T13:23:59.925Z,52.80
2022-08-07T13:26:01.770Z,52.60
2022-08-07T13:28:37.452Z,48.30
2022-08-07T13:31:13.086Z,53.80
2022-08-07T13:34:31.190Z,54.50
2022-08-07T13:36:43.042Z,54.00
2022-08-07T13:40:32.599Z,54.30
2022-08-07T13:42:21.575Z,55.10
2022-08-07T13:44:55.265Z,52.80
2022-08-07T13:48:06.109Z,54.70
2022-08-07T13:50:33.010Z,53.00
2022-08-07T13:53:04.797Z,47.30
2022-08-07T13:58:56.729Z,52.20
2022-08-07T14:22:02.234Z,47.90
2022-08-07T14:24:12.346Z,49.10
2022-08-07T14:26:50.679Z,49.30
2022-08-07T14:30:05.250Z,46.10
2022-08-07T14:32:09.621Z,53.80
2022-08-07T14:37:16.831Z,48.00
2022-08-07T14:40:18.277Z,48.40
2022-08-07T14:43:01.179Z,47.10
2022-08-07T14:45:26.178Z,48.70
2022-08-07T14:48:18.882Z,48.30
2022-08-07T14:50:51.063Z,55.40
2022-08-07T14:54:03.649Z,48.40
2022-08-07T14:56:13.268Z,49.50
2022-08-07T14:58:43.623Z,53.10
2022-08-07T15:04:05.613Z,48.50
2022-08-07T15:06:35.174Z,47.10
2022-08-07T15:12:01.713Z,47.60
2022-08-07T15:14:30.847Z,47.70
2022-08-07T15:17:02.802Z,48.60
2022-08-07T15:22:31.477Z,55.80
2022-08-07T15:31:04.634Z,47.80
2022-08-07T15:33:36.232Z,57.30
2022-08-07T15:36:06.850Z,47.00
2022-08-07T15:38:58.587Z,47.90
2022-08-07T15:42:44.206Z,47.60
2022-08-07T15:44:16.926Z,47.90
2022-08-07T15:46:52.597Z,47.60
2022-08-07T15:52:17.212Z,57.00
2022-08-07T15:54:50.696Z,48.70
2022-08-07T15:57:39.689Z,49.60
2022-08-07T16:00:31.529Z,53.50
2022-08-07T16:03:02.733Z,49.50
2022-08-07T16:05:31.584Z,49.50
2022-08-07T16:08:30.479Z,48.20
2022-08-07T16:10:57.674Z,49.40
2022-08-07T16:13:58.456Z,49.60
2022-08-07T16:16:49.134Z,49.90
2022-08-07T16:19:42.748Z,50.50
2022-08-07T16:22:55.709Z,49.60
2022-08-07T16:25:54.323Z,56.30
2022-08-07T16:30:09.137Z,48.50
2022-08-07T16:31:49.979Z,48.40
2022-08-07T16:34:26.054Z,48.50
2022-08-07T16:38:06.046Z,49.40
2022-08-07T16:40:51.096Z,50.30
2022-08-07T16:44:02.541Z,49.60
2022-08-07T16:47:16.376Z,56.70
2022-08-07T16:50:35.269Z,51.50
2022-08-07T16:54:01.913Z,48.10
2022-08-07T16:56:17.573Z,55.50
2022-08-07T16:59:11.316Z,55.80
2022-08-07T17:02:03.246Z,49.10
2022-08-07T17:04:51.070Z,48.40
2022-08-07T17:07:55.657Z,48.40
2022-08-07T17:10:30.161Z,49.30
2022-08-07T17:13:24.424Z,56.40
2022-08-07T17:16:13.815Z,48.30
2022-08-07T17:18:47.764Z,55.60
2022-08-07T17:21:18.717Z,48.90
2022-08-07T17:24:02.692Z,48.50
2022-08-07T17:26:49.791Z,54.80
2022-08-07T17:30:15.524Z,48.70
2022-08-07T17:32:31.315Z,55.60
2022-08-07T17:35:50.246Z,49.40
2022-08-07T17:38:12.729Z,52.20
2022-08-07T17:42:00.656Z,51.40
2022-08-07T17:44:02.969Z,50.70
2022-08-07T17:46:40.380Z,56.80
2022-08-07T17:49:23.833Z,50.50
2022-08-07T17:52:00.812Z,49.60
2022-08-07T17:54:40.228Z,50.40
2022-08-07T17:57:56.362Z,59.20
2022-08-07T18:00:33.180Z,50.50
2022-08-07T18:03:18.352Z,50.70
2022-08-07T18:06:03.235Z,51.20
2022-08-07T18:09:01.474Z,52.70
2022-08-07T18:12:17.652Z,51.50
2022-08-07T18:14:37.436Z,53.20
2022-08-07T18:17:10.921Z,52.40
2022-08-07T18:21:10.405Z,52.00
2022-08-07T18:22:48.422Z,61.10
2022-08-07T18:25:39.167Z,53.40
2022-08-07T18:28:35.843Z,62.50
2022-08-07T18:31:08.737Z,54.10
2022-08-07T18:34:35.826Z,56.40
2022-08-07T18:37:09.393Z,54.00
2022-08-07T18:40:08.090Z,62.90
2022-08-07T18:42:53.458Z,54.40
2022-08-07T18:45:42.809Z,60.80
2022-08-07T18:50:05.244Z,54.90
2022-08-07T18:52:34.835Z,64.70
2022-08-07T18:54:27.991Z,55.60
2022-08-07T18:57:30.844Z,57.60
2022-08-07T19:00:32.633Z,56.00
2022-08-07T19:02:58.672Z,56.00
2022-08-07T19:06:02.653Z,56.50
2022-08-07T19:08:19.325Z,56.80
2022-08-07T19:10:54.621Z,58.50
2022-08-07T19:13:27.431Z,57.30
2022-08-07T19:17:05.041Z,57.20
2022-08-07T19:18:56.675Z,67.30
2022-08-07T19:21:44.287Z,64.70
2022-08-07T19:24:30.683Z,61.90
2022-08-07T19:28:29.430Z,61.40
2022-08-07T19:31:00.621Z,58.90
2022-08-07T19:32:46.418Z,61.10
2022-08-07T19:35:18.632Z,59.40
2022-08-07T19:37:56.490Z,59.40
2022-08-07T19:40:30.933Z,59.40
2022-08-07T19:46:05.127Z,60.80
2022-08-07T19:48:19.070Z,60.00
2022-08-07T19:50:53.470Z,60.70
2022-08-07T19:57:52.259Z,60.70
2022-08-07T19:58:59.618Z,62.30
2022-08-07T20:01:56.000Z,61.90
2022-08-07T20:04:31.996Z,62.70
2022-08-07T20:07:08.961Z,61.40
2022-08-07T20:10:33.577Z,61.90
2022-08-07T20:12:34.883Z,63.50
2022-08-07T20:15:15.633Z,62.80
2022-08-07T20:18:01.535Z,62.70
2022-08-07T20:20:32.514Z,62.70
2022-08-07T20:23:23.274Z,62.90
2022-08-07T20:28:29.633Z,62.20
2022-08-07T20:30:58.914Z,63.10
2022-08-07T20:33:37.674Z,64.00
2022-08-07T20:36:08.328Z,63.70
2022-08-07T20:39:00.075Z,66.40
2022-08-07T20:41:26.107Z,65.70
2022-08-07T20:43:57.451Z,65.10
2022-08-07T20:46:32.394Z,64.90
2022-08-07T20:49:59.364Z,65.60
2022-08-07T20:51:51.115Z,65.80
2022-08-07T20:54:29.571Z,66.50
2022-08-07T20:57:03.187Z,66.30
2022-08-07T21:00:06.258Z,68.90
2022-08-07T21:02:54.557Z,69.20
2022-08-07T21:05:43.010Z,68.60
2022-08-07T21:08:37.569Z,67.50
2022-08-07T21:11:10.932Z,73.00
2022-08-07T21:13:43.939Z,76.90
2022-08-07T21:16:33.104Z,67.50
2022-08-07T21:19:01.096Z,78.60
2022-08-07T21:21:30.878Z,67.30
2022-08-07T21:24:06.964Z,67.60
2022-08-07T21:26:43.570Z,74.50
2022-08-07T21:29:17.749Z,79.30
2022-08-07T21:32:47.009Z,68.20
2022-08-07T21:34:51.095Z,79.00
2022-08-07T21:37:22.799Z,69.10
2022-08-07T21:39:57.448Z,82.80
2022-08-07T21:42:42.675Z,69.90
2022-08-07T21:46:05.142Z,79.90
2022-08-07T21:48:29.075Z,81.40
2022-08-07T21:51:20.108Z,80.40
2022-08-07T21:53:54.659Z,69.50
2022-08-07T21:56:37.701Z,69.60
2022-08-07T21:59:17.145Z,82.10
2022-08-07T22:02:10.906Z,72.30
2022-08-07T22:04:53.561Z,74.50
2022-08-07T22:07:35.699Z,83.80
2022-08-07T22:10:14.663Z,75.30
2022-08-07T22:12:47.129Z,71.90
2022-08-07T22:16:43.982Z,82.40
2022-08-07T22:18:10.615Z,74.10
2022-08-07T22:20:42.188Z,75.60
2022-08-07T22:23:21.754Z,74.80
2022-08-07T22:26:05.804Z,86.00
2022-08-07T22:28:41.701Z,87.00
2022-08-07T22:31:58.994Z,87.50
2022-08-07T22:34:16.201Z,87.80
2022-08-07T22:36:53.036Z,89.00
2022-08-07T22:39:29.652Z,77.90
2022-08-07T22:42:19.564Z,88.90
2022-08-07T22:44:58.840Z,83.40
2022-08-07T22:47:44.793Z,88.80
2022-08-07T22:50:33.199Z,87.00
2022-08-07T22:54:09.300Z,82.30
2022-08-07T22:56:23.487Z,80.40
2022-08-07T22:59:16.202Z,82.40
2022-08-07T23:02:01.105Z,83.90
2022-08-07T23:06:07.267Z,82.60
2022-08-07T23:07:55.683Z,83.80
2022-08-07T23:10:39.710Z,85.70
2022-08-07T23:13:48.735Z,89.10
2022-08-07T23:16:54.606Z,88.30
2022-08-07T23:19:57.759Z,85.40
2022-08-07T23:22:39.300Z,93.90
2022-08-07T23:25:28.293Z,88.40
2022-08-07T23:28:20.395Z,88.00
2022-08-07T23:31:06.802Z,88.20
2022-08-07T23:34:35.095Z,88.10
2022-08-07T23:37:19.018Z,90.20
2022-08-07T23:40:00.183Z,90.80
2022-08-07T23:42:42.998Z,90.00
2022-08-07T23:45:33.379Z,90.60
2022-08-07T23:48:40.068Z,90.10
2022-08-07T23:52:53.459Z,91.70
2022-08-07T23:54:19.449Z,90.70
2022-08-07T23:56:56.250Z,90.70
